Dresden, Tennessee
Current Conditions -  °F | °C
As of 2:35 PM on Monday 22 Dec 2014 (Local Time) from KUCY Reporting Station
Overcast Overcast  
Wind Chill: 54°   Ceiling: 1700
Heat Index: 54°   Visibility: 10mi
Dew Point: 50°   Wind: 16mph
Humidity: 88%   Direction: 150°SSE
Pressure: 29.63"   Gusts: NA
Location:  36.29°N, 88.71°W
Report Text: KUCY 222035Z AUTO 15014KT 10SM OVC017 12/10 A2963 RMK
Loading
Personal Weather Stations






























Interactive Weather Map New forecast layout! Learn more

10-Day Weather Forecast

Advertisements
Track Severe Weather on mobile